Decoded Metar for KTTA (SANFORD in NC, USA) (IATA:TTA) | Meteo·Mobile Aviation Weather
aviador You're here:

KTTA Decoded Metar

SANFORD in NC, USA
Report Time2018-11-16 02:40:00
UTC Time2018-11-16 02:59:25
Flight Rules mvfr MVFR
Wind250° at 04 kt
W.Decomp.*RWY 21: 2.7 kt HW 3.0 kt RCW
W.Rank250° ranks 15
Current wind is below 250° avg. (5.5)
Visibility9999 m
Phenomena:N/A
Clouds:Broken 011 Hf
Overcast 014 Hf
Expected CloudBase > 400 ft AGL from Temp-Dew spread
Ceiling1,100 ft
Temp04°C (ISA -11)
Dew Point03°C (93% RH)
AAT1.1°C
QNH1013 hPa
Density Alt-922 ft
Elevation246 ft
Report Wrong Elevation
Raw Report
KTTA 160240Z AUTO 25004KT 10SM BKN011 OVC014 04/03 A2990 RMK AO2
T00350032=

Extra information for KTTA:More info

Metar Taf Metar & Taf Last 4 Metars F.Rules Stats Wind Profile Meteogram Temp Stats Airport Information Weather charts Add Link Nearby VenuesMetar ALERT Operation Metar Decoded Social comments

AIRNAV info for KTTA